Time,TemperatureF,DewpointF,PressureIn,WindDirection,WindDirectionDegrees,WindSpeedMPH,WindSpeedGustMPH,Humidity,HourlyPrecipIn,Conditions,Clouds,dailyrainin,SoftwareType,DateUTC
2013-06-16 00:00:00,61.7,57.8,29.96,WNW,292,3.0,7.0,87,0.00,,---,0.00,VWS V14.00,2013-06-16 07:00:00,
2013-06-16 00:04:00,61.6,58.0,29.96,NW,312,4.0,5.0,87,0.00,,,0.00,weatherlink.com 1.10,2013-06-16 07:04:00,
2013-06-16 00:19:00,61.4,58.0,29.95,West,281,4.0,5.0,88,0.00,,,0.00,weatherlink.com 1.10,2013-06-16 07:19:00,
2013-06-16 00:30:00,61.4,57.8,29.96,WNW,292,3.0,6.0,88,0.00,,---,0.00,VWS V14.00,2013-06-16 07:30:00,
2013-06-16 00:34:00,61.4,58.0,29.96,West,278,5.0,6.0,88,0.00,,,0.00,weatherlink.com 1.10,2013-06-16 07:34:00,
2013-06-16 00:49:00,61.3,58.0,29.95,NW,306,4.0,5.0,88,0.00,,,0.00,weatherlink.com 1.10,2013-06-16 07:49:00,
2013-06-16 01:00:00,61.6,57.7,29.96,WNW,292,3.0,6.0,87,0.00,,---,0.00,VWS V14.00,2013-06-16 08:00:00,
2013-06-16 01:04:00,61.3,58.0,29.95,West,281,1.0,4.0,88,0.00,,,0.00,weatherlink.com 1.10,2013-06-16 08:04:00,
2013-06-16 01:30:00,60.8,56.6,29.95,WSW,248,1.0,4.0,86,0.00,,---,0.00,VWS V14.00,2013-06-16 08:30:00,
2013-06-16 01:34:00,60.8,57.0,29.95,SW,216,0.0,2.0,86,0.00,,,0.00,weatherlink.com 1.10,2013-06-16 08:34:00,
2013-06-16 01:49:00,60.7,57.0,29.95,SSW,213,0.0,1.0,86,0.00,,,0.00,weatherlink.com 1.10,2013-06-16 08:49:00,
2013-06-16 02:00:00,60.8,56.6,29.95,SSW,202,0.0,2.0,86,0.00,,---,0.00,VWS V14.00,2013-06-16 09:00:00,
2013-06-16 02:04:00,60.8,57.0,29.95,ESE,119,0.0,2.0,86,0.00,,,0.00,weatherlink.com 1.10,2013-06-16 09:04:00,
2013-06-16 02:19:00,61.0,57.0,29.95,ESE,104,0.0,3.0,85,0.00,,,0.00,weatherlink.com 1.10,2013-06-16 09:19:00,
2013-06-16 02:30:00,61.0,56.1,29.95,ESE,112,0.0,3.0,84,0.00,,---,0.00,VWS V14.00,2013-06-16 09:30:00,
2013-06-16 02:34:00,61.0,56.0,29.95,East,85,0.0,2.0,84,0.00,,,0.00,weatherlink.com 1.10,2013-06-16 09:34:00,
2013-06-16 02:49:00,60.9,56.0,29.95,ESE,103,1.0,2.0,84,0.00,,,0.00,weatherlink.com 1.10,2013-06-16 09:49:00,
2013-06-16 03:00:00,60.9,56.0,29.95,East,90,0.0,3.0,84,0.00,,---,0.00,VWS V14.00,2013-06-16 10:00:00,
2013-06-16 03:04:00,60.9,56.0,29.95,ESE,109,0.0,2.0,84,0.00,,,0.00,weatherlink.com 1.10,2013-06-16 10:04:00,
2013-06-16 03:30:00,61.0,56.1,29.95,ESE,112,0.0,3.0,84,0.00,,---,0.00,VWS V14.00,2013-06-16 10:30:00,
2013-06-16 03:34:00,60.4,56.0,29.95,ESE,109,0.0,2.0,85,0.00,,,0.00,weatherlink.com 1.10,2013-06-16 10:34:00,
2013-06-16 03:49:00,60.1,56.0,29.95,ESE,109,0.0,1.0,85,0.00,,,0.00,weatherlink.com 1.10,2013-06-16 10:49:00,
2013-06-16 04:00:00,59.8,55.3,29.95,ESE,112,1.0,4.0,85,0.00,,---,0.00,VWS V14.00,2013-06-16 11:00:00,
2013-06-16 04:04:00,59.7,55.0,29.95,ESE,111,0.0,4.0,85,0.00,,,0.00,weatherlink.com 1.10,2013-06-16 11:04:00,
2013-06-16 04:19:00,59.6,56.0,29.95,ESE,111,0.0,2.0,86,0.00,,,0.00,weatherlink.com 1.10,2013-06-16 11:19:00,
2013-06-16 04:30:00,60.4,55.5,29.95,ESE,112,0.0,2.0,84,0.00,,---,0.00,VWS V14.00,2013-06-16 11:30:00,
2013-06-16 04:34:00,59.6,56.0,29.95,East,88,0.0,2.0,86,0.00,,,0.00,weatherlink.com 1.10,2013-06-16 11:34:00,
2013-06-16 04:49:00,59.7,56.0,29.95,East,88,0.0,2.0,86,0.00,,,0.00,weatherlink.com 1.10,2013-06-16 11:49:00,
2013-06-16 05:00:00,59.8,55.3,29.95,East,90,0.0,2.0,85,0.00,,---,0.00,VWS V14.00,2013-06-16 12:00:00,
2013-06-16 05:04:00,59.7,55.0,29.95,East,88,0.0,1.0,85,0.00,,,0.00,weatherlink.com 1.10,2013-06-16 12:04:00,
2013-06-16 05:19:00,59.9,55.0,29.96,SE,144,1.0,3.0,85,0.00,,,0.00,weatherlink.com 1.10,2013-06-16 12:19:00,
2013-06-16 05:30:00,59.6,55.4,29.95,ESE,112,0.0,4.0,86,0.00,,---,0.00,VWS V14.00,2013-06-16 12:30:00,
2013-06-16 05:34:00,60.0,56.0,29.96,SE,144,0.0,1.0,85,0.00,,,0.00,weatherlink.com 1.10,2013-06-16 12:34:00,
2013-06-16 05:49:00,60.1,55.0,29.96,SE,144,0.0,2.0,84,0.00,,,0.00,weatherlink.com 1.10,2013-06-16 12:49:00,
2013-06-16 06:00:00,60.2,55.3,29.97,SE,135,0.0,2.0,84,0.00,,---,0.00,VWS V14.00,2013-06-16 13:00:00,
2013-06-16 06:04:00,60.1,55.0,29.97,SE,127,0.0,2.0,84,0.00,,,0.00,weatherlink.com 1.10,2013-06-16 13:04:00,
2013-06-16 06:19:00,60.1,55.0,29.98,ENE,78,0.0,3.0,84,0.00,,,0.00,weatherlink.com 1.10,2013-06-16 13:19:00,
2013-06-16 06:30:00,60.2,55.7,29.98,ENE,68,0.0,3.0,85,0.00,,---,0.00,VWS V14.00,2013-06-16 13:30:00,
2013-06-16 06:34:00,60.3,56.0,29.98,ENE,78,1.0,3.0,84,0.00,,,0.00,weatherlink.com 1.10,2013-06-16 13:34:00,
2013-06-16 06:49:00,60.4,55.0,29.98,East,82,0.0,3.0,83,0.00,,,0.00,weatherlink.com 1.10,2013-06-16 13:49:00,
2013-06-16 07:00:00,60.7,55.5,29.98,East,90,1.0,4.0,83,0.00,,---,0.00,VWS V14.00,2013-06-16 14:00:00,
2013-06-16 07:04:00,60.8,56.0,29.98,ESE,104,1.0,3.0,83,0.00,,,0.00,weatherlink.com 1.10,2013-06-16 14:04:00,
2013-06-16 07:19:00,61.1,56.0,29.99,ESE,107,0.0,3.0,82,0.00,,,0.00,weatherlink.com 1.10,2013-06-16 14:19:00,
2013-06-16 07:30:00,60.9,55.4,30.00,ESE,112,1.0,4.0,82,0.00,,---,0.00,VWS V14.00,2013-06-16 14:30:00,
2013-06-16 07:34:00,61.0,56.0,30.00,NW,317,2.0,3.0,82,0.00,,,0.00,weatherlink.com 1.10,2013-06-16 14:34:00,
2013-06-16 07:49:00,61.4,56.0,30.00,WSW,247,1.0,2.0,82,0.00,,,0.00,weatherlink.com 1.10,2013-06-16 14:49:00,
2013-06-16 08:00:00,60.7,55.5,29.98,East,90,1.0,4.0,83,0.00,,---,0.00,VWS V14.00,2013-06-16 15:00:00,
2013-06-16 08:04:00,62.0,56.0,30.01,WNW,290,1.0,2.0,80,0.00,,,0.00,weatherlink.com 1.10,2013-06-16 15:04:00,
2013-06-16 08:19:00,62.1,56.0,30.01,South,190,1.0,4.0,80,0.00,,,0.00,weatherlink.com 1.10,2013-06-16 15:19:00,
2013-06-16 08:30:00,62.0,55.8,30.01,WSW,248,1.0,5.0,80,0.00,,---,0.00,VWS V14.00,2013-06-16 15:30:00,
2013-06-16 08:34:00,62.0,56.0,30.02,SW,232,0.0,5.0,80,0.00,,,0.00,weatherlink.com 1.10,2013-06-16 15:34:00,
2013-06-16 08:49:00,62.7,56.0,30.02,West,270,2.0,4.0,79,0.00,,,0.00,weatherlink.com 1.10,2013-06-16 15:49:00,
2013-06-16 09:00:00,62.5,55.9,30.01,West,270,2.0,6.0,79,0.00,,---,0.00,VWS V14.00,2013-06-16 16:00:00,
2013-06-16 09:04:00,62.8,56.0,30.01,SW,233,2.0,5.0,79,0.00,,,0.00,weatherlink.com 1.10,2013-06-16 16:04:00,
2013-06-16 09:19:00,63.1,56.0,30.01,West,277,7.0,9.0,77,0.00,,,0.00,weatherlink.com 1.10,2013-06-16 16:19:00,
2013-06-16 09:30:00,63.5,56.5,30.01,West,270,3.0,9.0,78,0.00,,---,0.00,VWS V14.00,2013-06-16 16:30:00,
2013-06-16 09:34:00,63.2,56.0,30.02,WNW,298,5.0,9.0,78,0.00,,,0.00,weatherlink.com 1.10,2013-06-16 16:34:00,
2013-06-16 09:49:00,63.2,56.0,30.02,WNW,297,4.0,9.0,78,0.00,,,0.00,weatherlink.com 1.10,2013-06-16 16:49:00,
2013-06-16 10:00:00,63.4,56.4,30.01,WNW,292,5.0,9.0,78,0.00,,---,0.00,VWS V14.00,2013-06-16 17:00:00,
2013-06-16 10:04:00,63.2,56.0,30.01,WSW,252,3.0,10.0,78,0.00,,,0.00,weatherlink.com 1.10,2013-06-16 17:04:00,
2013-06-16 10:19:00,63.1,56.0,30.01,West,274,5.0,11.0,78,0.00,,,0.00,weatherlink.com 1.10,2013-06-16 17:19:00,
2013-06-16 10:30:00,63.7,56.4,30.01,WSW,248,5.0,11.0,77,0.00,,---,0.00,VWS V14.00,2013-06-16 17:30:00,
2013-06-16 10:34:00,63.6,56.0,30.01,West,274,3.0,12.0,76,0.00,,,0.00,weatherlink.com 1.10,2013-06-16 17:34:00,
2013-06-16 10:49:00,63.8,56.0,30.01,WNW,287,10.0,10.0,77,0.00,,,0.00,weatherlink.com 1.10,2013-06-16 17:49:00,
2013-06-16 11:00:00,63.4,56.4,30.01,WNW,292,5.0,9.0,78,0.00,,---,0.00,VWS V14.00,2013-06-16 18:00:00,
2013-06-16 11:04:00,64.1,56.0,30.01,WNW,298,7.0,10.0,76,0.00,,,0.00,weatherlink.com 1.10,2013-06-16 18:04:00,
2013-06-16 11:19:00,63.5,57.0,30.01,WNW,298,8.0,12.0,78,0.00,,,0.00,weatherlink.com 1.10,2013-06-16 18:19:00,
2013-06-16 11:30:00,63.7,56.4,30.01,WSW,248,5.0,11.0,77,0.00,,---,0.00,VWS V14.00,2013-06-16 18:30:00,
2013-06-16 11:34:00,63.9,56.0,30.00,WSW,244,6.0,13.0,76,0.00,,,0.00,weatherlink.com 1.10,2013-06-16 18:34:00,
2013-06-16 11:49:00,63.9,56.0,30.00,West,268,8.0,12.0,76,0.00,,,0.00,weatherlink.com 1.10,2013-06-16 18:49:00,
2013-06-16 12:00:00,64.6,56.9,30.00,West,270,7.0,13.0,76,0.00,,---,0.00,VWS V14.00,2013-06-16 19:00:00,
2013-06-16 12:04:00,64.6,57.0,30.00,West,278,4.0,11.0,76,0.00,,,0.00,weatherlink.com 1.10,2013-06-16 19:04:00,
2013-06-16 12:19:00,64.3,57.0,30.00,West,262,7.0,14.0,76,0.00,,,0.00,weatherlink.com 1.10,2013-06-16 19:19:00,
2013-06-16 12:30:00,63.8,56.5,30.00,WNW,292,7.0,13.0,77,0.00,,---,0.00,VWS V14.00,2013-06-16 19:30:00,
2013-06-16 12:34:00,64.8,57.0,30.00,West,278,9.0,14.0,76,0.00,,,0.00,weatherlink.com 1.10,2013-06-16 19:34:00,
2013-06-16 12:49:00,64.0,57.0,30.00,WNW,284,9.0,14.0,78,0.00,,,0.00,weatherlink.com 1.10,2013-06-16 19:49:00,
2013-06-16 13:00:00,64.1,57.1,29.99,West,270,8.0,14.0,78,0.00,,---,0.00,VWS V14.00,2013-06-16 20:00:00,
2013-06-16 13:05:00,64.8,58.0,29.99,WNW,299,7.0,14.0,78,0.00,,,0.00,weatherlink.com 1.10,2013-06-16 20:05:00,
2013-06-16 13:30:00,64.6,57.2,29.98,West,270,8.0,16.0,77,0.00,,---,0.00,VWS V14.00,2013-06-16 20:30:00,
2013-06-16 13:35:00,65.0,58.0,29.98,NW,325,10.0,14.0,77,0.00,,,0.00,weatherlink.com 1.10,2013-06-16 20:35:00,
2013-06-16 13:50:00,64.3,57.0,29.98,West,277,8.0,16.0,77,0.00,,,0.00,weatherlink.com 1.10,2013-06-16 20:50:00,
2013-06-16 14:00:00,65.6,57.1,29.98,West,270,8.0,18.0,74,0.00,,---,0.00,VWS V14.00,2013-06-16 21:00:00,
2013-06-16 14:05:00,65.2,57.0,29.98,West,279,9.0,13.0,75,0.00,,,0.00,weatherlink.com 1.10,2013-06-16 21:05:00,
2013-06-16 14:20:00,64.2,57.0,29.98,West,263,12.0,14.0,78,0.00,,,0.00,weatherlink.com 1.10,2013-06-16 21:20:00,
2013-06-16 14:30:00,65.1,57.4,29.98,West,270,9.0,15.0,76,0.00,,---,0.00,VWS V14.00,2013-06-16 21:30:00,
2013-06-16 14:35:00,64.9,57.0,29.98,WSW,240,8.0,14.0,76,0.00,,,0.00,weatherlink.com 1.10,2013-06-16 21:35:00,
2013-06-16 14:50:00,64.7,57.0,29.98,West,269,7.0,13.0,77,0.00,,,0.00,weatherlink.com 1.10,2013-06-16 21:50:00,
2013-06-16 15:00:00,64.8,57.4,29.97,West,270,8.0,14.0,77,0.00,,---,0.00,VWS V14.00,2013-06-16 22:00:00,
2013-06-16 15:05:00,64.6,57.0,29.97,SSW,206,7.0,14.0,76,0.00,,,0.00,weatherlink.com 1.10,2013-06-16 22:05:00,
2013-06-16 15:20:00,65.2,58.0,29.97,WSW,243,8.0,13.0,78,0.00,,,0.00,weatherlink.com 1.10,2013-06-16 22:20:00,
2013-06-16 15:30:00,65.0,58.3,29.97,West,270,8.0,14.0,79,0.00,,---,0.00,VWS V14.00,2013-06-16 22:30:00,
2013-06-16 15:35:00,65.3,59.0,29.97,NW,317,6.0,13.0,79,0.00,,,0.00,weatherlink.com 1.10,2013-06-16 22:35:00,
2013-06-16 15:50:00,65.3,59.0,29.97,West,263,7.0,14.0,79,0.00,,,0.00,weatherlink.com 1.10,2013-06-16 22:50:00,
2013-06-16 16:00:00,65.7,59.0,29.96,WSW,248,8.0,14.0,79,0.00,,---,0.00,VWS V14.00,2013-06-16 23:00:00,
2013-06-16 16:05:00,65.3,59.0,29.96,SW,229,9.0,13.0,79,0.00,,,0.00,weatherlink.com 1.10,2013-06-16 23:05:00,
2013-06-16 16:20:00,65.4,59.0,29.96,WSW,256,9.0,13.0,79,0.00,,,0.00,weatherlink.com 1.10,2013-06-16 23:20:00,
2013-06-16 16:30:00,65.2,58.9,29.95,West,270,8.0,14.0,80,0.00,,---,0.00,VWS V14.00,2013-06-16 23:30:00,
2013-06-16 16:35:00,65.7,59.0,29.95,NNW,338,5.0,14.0,79,0.00,,,0.00,weatherlink.com 1.10,2013-06-16 23:35:00,
2013-06-16 16:50:00,65.6,59.0,29.95,West,267,11.0,14.0,78,0.00,,,0.00,weatherlink.com 1.10,2013-06-16 23:50:00,
2013-06-16 17:00:00,64.8,58.5,29.95,West,270,7.0,14.0,80,0.00,,---,0.00,VWS V14.00,2013-06-17 00:00:00,
2013-06-16 17:05:00,64.8,59.0,29.95,West,267,10.0,14.0,80,0.00,,,0.00,weatherlink.com 1.10,2013-06-17 00:05:00,
2013-06-16 17:20:00,65.0,59.0,29.95,WNW,300,10.0,13.0,80,0.00,,,0.00,weatherlink.com 1.10,2013-06-17 00:20:00,
2013-06-16 17:30:00,65.2,58.9,29.95,West,270,8.0,14.0,80,0.00,,---,0.00,VWS V14.00,2013-06-17 00:30:00,
2013-06-16 17:35:00,64.6,59.0,29.95,WNW,296,7.0,14.0,81,0.00,,,0.00,weatherlink.com 1.10,2013-06-17 00:35:00,
2013-06-16 17:50:00,64.6,59.0,29.94,WNW,294,8.0,14.0,82,0.00,,,0.00,weatherlink.com 1.10,2013-06-17 00:50:00,
2013-06-16 18:00:00,64.6,59.7,29.94,West,270,9.0,15.0,84,0.00,,---,0.00,VWS V14.00,2013-06-17 01:00:00,
2013-06-16 18:05:00,64.9,59.0,29.94,WNW,295,9.0,13.0,82,0.00,,,0.00,weatherlink.com 1.10,2013-06-17 01:05:00,
2013-06-16 18:20:00,64.4,60.0,29.94,WNW,286,7.0,14.0,84,0.00,,,0.00,weatherlink.com 1.10,2013-06-17 01:20:00,
2013-06-16 18:30:00,64.1,59.2,29.94,West,270,8.0,14.0,84,0.00,,---,0.00,VWS V14.00,2013-06-17 01:30:00,
2013-06-16 18:35:00,64.0,59.0,29.94,WSW,242,8.0,14.0,84,0.00,,,0.00,weatherlink.com 1.10,2013-06-17 01:35:00,
2013-06-16 18:50:00,64.0,60.0,29.94,WSW,252,8.0,14.0,85,0.00,,,0.00,weatherlink.com 1.10,2013-06-17 01:50:00,
2013-06-16 19:00:00,63.7,59.4,29.95,West,270,9.0,14.0,86,0.00,,---,0.00,VWS V14.00,2013-06-17 02:00:00,
2013-06-16 19:05:00,63.7,59.0,29.95,WSW,248,11.0,14.0,85,0.00,,,0.00,weatherlink.com 1.10,2013-06-17 02:05:00,
2013-06-16 19:20:00,63.2,59.0,29.95,NW,312,11.0,14.0,86,0.00,,,0.00,weatherlink.com 1.10,2013-06-17 02:20:00,
2013-06-16 19:30:00,63.0,59.1,29.95,WNW,292,8.0,15.0,87,0.00,,---,0.00,VWS V14.00,2013-06-17 02:30:00,
2013-06-16 19:35:00,62.9,59.0,29.95,West,279,5.0,12.0,87,0.00,,,0.00,weatherlink.com 1.10,2013-06-17 02:35:00,
2013-06-16 19:50:00,62.5,59.0,29.95,WNW,288,6.0,11.0,88,0.00,,,0.00,weatherlink.com 1.10,2013-06-17 02:50:00,
2013-06-16 20:00:00,62.4,59.1,29.95,WNW,292,6.0,12.0,89,0.00,,---,0.00,VWS V14.00,2013-06-17 03:00:00,
2013-06-16 20:05:00,62.2,59.0,29.95,West,270,8.0,10.0,89,0.00,,,0.00,weatherlink.com 1.10,2013-06-17 03:05:00,
2013-06-16 20:20:00,62.0,59.0,29.95,WSW,246,5.0,13.0,90,0.00,,,0.00,weatherlink.com 1.10,2013-06-17 03:20:00,
2013-06-16 20:30:00,61.8,58.8,29.95,WNW,292,5.0,13.0,90,0.00,,---,0.00,VWS V14.00,2013-06-17 03:30:00,
2013-06-16 20:35:00,61.8,59.0,29.95,NW,306,4.0,10.0,90,0.00,,,0.00,weatherlink.com 1.10,2013-06-17 03:35:00,
2013-06-16 20:50:00,61.7,59.0,29.94,WNW,300,2.0,7.0,90,0.00,,,0.00,weatherlink.com 1.10,2013-06-17 03:50:00,
2013-06-16 21:00:00,62.4,59.1,29.95,WNW,292,6.0,12.0,89,0.00,,---,0.00,VWS V14.00,2013-06-17 04:00:00,
2013-06-16 21:05:00,61.6,59.0,29.94,WNW,284,3.0,6.0,90,0.00,,,0.00,weatherlink.com 1.10,2013-06-17 04:05:00,
2013-06-16 21:20:00,61.5,59.0,29.95,WNW,282,2.0,7.0,91,0.00,,,0.00,weatherlink.com 1.10,2013-06-17 04:20:00,
2013-06-16 21:30:00,61.4,58.8,29.95,West,270,3.0,7.0,91,0.00,,---,0.00,VWS V14.00,2013-06-17 04:30:00,
2013-06-16 21:35:00,61.3,59.0,29.95,WNW,285,3.0,7.0,91,0.00,,,0.00,weatherlink.com 1.10,2013-06-17 04:35:00,
2013-06-16 21:50:00,61.3,59.0,29.95,WNW,284,3.0,7.0,91,0.00,,,0.00,weatherlink.com 1.10,2013-06-17 04:50:00,
2013-06-16 22:00:00,61.3,58.7,29.95,WNW,292,3.0,7.0,91,0.00,,---,0.00,VWS V14.00,2013-06-17 05:00:00,
2013-06-16 22:05:00,61.3,59.0,29.95,West,272,3.0,6.0,91,0.00,,,0.00,weatherlink.com 1.10,2013-06-17 05:05:00,
2013-06-16 22:20:00,61.2,59.0,29.95,WNW,284,2.0,4.0,91,0.00,,,0.00,weatherlink.com 1.10,2013-06-17 05:20:00,
2013-06-16 22:30:00,61.1,58.8,29.95,West,270,2.0,5.0,92,0.00,,---,0.00,VWS V14.00,2013-06-17 05:30:00,
2013-06-16 22:35:00,61.0,59.0,29.95,West,259,2.0,5.0,92,0.00,,,0.00,weatherlink.com 1.10,2013-06-17 05:35:00,
2013-06-16 22:50:00,60.8,59.0,29.95,West,263,2.0,5.0,92,0.00,,,0.00,weatherlink.com 1.10,2013-06-17 05:50:00,
2013-06-16 23:00:00,60.7,58.4,29.95,West,270,2.0,5.0,92,0.00,,---,0.00,VWS V14.00,2013-06-17 06:00:00,
2013-06-16 23:05:00,60.6,58.0,29.95,West,276,3.0,5.0,92,0.00,,,0.00,weatherlink.com 1.10,2013-06-17 06:05:00,
2013-06-16 23:20:00,60.5,58.0,29.95,WNW,294,3.0,3.0,92,0.00,,,0.00,weatherlink.com 1.10,2013-06-17 06:20:00,
2013-06-16 23:30:00,60.5,58.2,29.95,WNW,292,2.0,4.0,92,0.00,,---,0.00,VWS V14.00,2013-06-17 06:30:00,
2013-06-16 23:35:00,60.5,58.0,29.95,West,275,2.0,4.0,92,0.00,,,0.00,weatherlink.com 1.10,2013-06-17 06:35:00,
2013-06-16 23:50:00,60.3,58.0,29.95,West,272,2.0,3.0,93,0.00,,,0.00,weatherlink.com 1.10,2013-06-17 06:50:00,